sensor_id;sensor_type;location;lat;lon;timestamp;P1;durP1;ratioP1;P2;durP2;ratioP2
27666;SDS011;15074;50.940;5.282;2023-02-18T00:00:16;11.77;;;10.40;;
27666;SDS011;15074;50.940;5.282;2023-02-18T00:02:44;14.02;;;11.05;;
27666;SDS011;15074;50.940;5.282;2023-02-18T00:05:11;13.65;;;10.77;;
27666;SDS011;15074;50.940;5.282;2023-02-18T00:07:38;13.23;;;11.93;;
27666;SDS011;15074;50.940;5.282;2023-02-18T00:10:05;12.45;;;11.15;;
27666;SDS011;15074;50.940;5.282;2023-02-18T00:12:33;12.80;;;11.50;;
27666;SDS011;15074;50.940;5.282;2023-02-18T00:14:59;11.60;;;10.40;;
27666;SDS011;15074;50.940;5.282;2023-02-18T00:17:24;12.35;;;10.68;;
27666;SDS011;15074;50.940;5.282;2023-02-18T00:19:52;12.70;;;11.40;;
27666;SDS011;15074;50.940;5.282;2023-02-18T00:22:17;14.40;;;10.77;;
27666;SDS011;15074;50.940;5.282;2023-02-18T00:24:43;14.57;;;11.57;;
27666;SDS011;15074;50.940;5.282;2023-02-18T00:27:09;13.25;;;10.18;;
27666;SDS011;15074;50.940;5.282;2023-02-18T00:29:34;13.68;;;10.90;;
27666;SDS011;15074;50.940;5.282;2023-02-18T00:32:00;12.20;;;10.90;;
27666;SDS011;15074;50.940;5.282;2023-02-18T00:34:26;14.20;;;11.43;;
27666;SDS011;15074;50.940;5.282;2023-02-18T00:36:51;12.73;;;11.43;;
27666;SDS011;15074;50.940;5.282;2023-02-18T00:39:17;13.45;;;11.32;;
27666;SDS011;15074;50.940;5.282;2023-02-18T00:41:43;14.70;;;11.88;;
27666;SDS011;15074;50.940;5.282;2023-02-18T00:44:09;15.07;;;11.80;;
27666;SDS011;15074;50.940;5.282;2023-02-18T00:46:35;13.00;;;11.45;;
27666;SDS011;15074;50.940;5.282;2023-02-18T00:49:02;13.93;;;11.57;;
27666;SDS011;15074;50.940;5.282;2023-02-18T00:51:29;12.00;;;10.87;;
27666;SDS011;15074;50.940;5.282;2023-02-18T00:53:55;19.30;;;12.45;;
27666;SDS011;15074;50.940;5.282;2023-02-18T00:56:20;14.00;;;12.55;;
27666;SDS011;15074;50.940;5.282;2023-02-18T00:58:46;13.45;;;11.73;;
27666;SDS011;15074;50.940;5.282;2023-02-18T01:01:12;14.35;;;11.25;;
27666;SDS011;15074;50.940;5.282;2023-02-18T01:03:39;13.52;;;12.18;;
27666;SDS011;15074;50.940;5.282;2023-02-18T01:06:06;12.27;;;10.30;;
27666;SDS011;15074;50.940;5.282;2023-02-18T01:08:32;11.70;;;10.13;;
27666;SDS011;15074;50.940;5.282;2023-02-18T01:10:59;13.18;;;9.65;;
27666;SDS011;15074;50.940;5.282;2023-02-18T01:13:24;12.20;;;10.45;;
27666;SDS011;15074;50.940;5.282;2023-02-18T01:15:50;14.77;;;9.80;;
27666;SDS011;15074;50.940;5.282;2023-02-18T01:18:17;12.15;;;10.93;;
27666;SDS011;15074;50.940;5.282;2023-02-18T01:20:43;10.20;;;9.13;;
27666;SDS011;15074;50.940;5.282;2023-02-18T01:23:10;9.90;;;8.07;;
27666;SDS011;15074;50.940;5.282;2023-02-18T01:25:36;11.30;;;8.63;;
27666;SDS011;15074;50.940;5.282;2023-02-18T01:28:03;10.40;;;8.98;;
27666;SDS011;15074;50.940;5.282;2023-02-18T01:30:30;9.43;;;8.40;;
27666;SDS011;15074;50.940;5.282;2023-02-18T01:32:56;13.35;;;7.95;;
27666;SDS011;15074;50.940;5.282;2023-02-18T01:35:22;8.45;;;7.43;;
27666;SDS011;15074;50.940;5.282;2023-02-18T01:37:48;11.45;;;7.13;;
27666;SDS011;15074;50.940;5.282;2023-02-18T01:40:16;10.52;;;9.15;;
27666;SDS011;15074;50.940;5.282;2023-02-18T01:42:45;8.10;;;6.88;;
27666;SDS011;15074;50.940;5.282;2023-02-18T01:46:13;7.90;;;6.95;;
27666;SDS011;15074;50.940;5.282;2023-02-18T01:48:20;7.82;;;6.70;;
27666;SDS011;15074;50.940;5.282;2023-02-18T01:59:06;7.90;;;6.20;;
27666;SDS011;15074;50.940;5.282;2023-02-18T02:01:34;8.13;;;6.07;;
27666;SDS011;15074;50.940;5.282;2023-02-18T02:04:00;7.85;;;6.97;;
27666;SDS011;15074;50.940;5.282;2023-02-18T02:06:26;8.43;;;5.72;;
27666;SDS011;15074;50.940;5.282;2023-02-18T02:08:53;9.13;;;6.03;;
27666;SDS011;15074;50.940;5.282;2023-02-18T02:11:24;10.00;;;7.05;;
27666;SDS011;15074;50.940;5.282;2023-02-18T02:17:12;11.98;;;7.40;;
27666;SDS011;15074;50.940;5.282;2023-02-18T02:25:35;9.82;;;6.47;;
27666;SDS011;15074;50.940;5.282;2023-02-18T02:28:41;9.88;;;6.82;;
27666;SDS011;15074;50.940;5.282;2023-02-18T02:36:37;6.03;;;4.40;;
27666;SDS011;15074;50.940;5.282;2023-02-18T02:39:15;7.25;;;4.45;;
27666;SDS011;15074;50.940;5.282;2023-02-18T02:44:52;4.78;;;3.13;;
27666;SDS011;15074;50.940;5.282;2023-02-18T02:47:40;5.20;;;3.20;;
27666;SDS011;15074;50.940;5.282;2023-02-18T02:50:20;4.22;;;3.17;;
27666;SDS011;15074;50.940;5.282;2023-02-18T02:52:56;5.22;;;3.67;;
27666;SDS011;15074;50.940;5.282;2023-02-18T02:55:26;5.10;;;2.92;;
27666;SDS011;15074;50.940;5.282;2023-02-18T02:57:52;4.78;;;3.13;;
27666;SDS011;15074;50.940;5.282;2023-02-18T03:00:21;2.78;;;2.40;;
27666;SDS011;15074;50.940;5.282;2023-02-18T03:08:22;3.63;;;2.45;;
27666;SDS011;15074;50.940;5.282;2023-02-18T03:11:06;4.22;;;2.63;;
27666;SDS011;15074;50.940;5.282;2023-02-18T03:13:50;5.65;;;4.55;;
27666;SDS011;15074;50.940;5.282;2023-02-18T03:19:28;6.07;;;5.18;;
27666;SDS011;15074;50.940;5.282;2023-02-18T03:22:04;5.35;;;3.28;;
27666;SDS011;15074;50.940;5.282;2023-02-18T03:24:40;5.13;;;3.88;;
27666;SDS011;15074;50.940;5.282;2023-02-18T03:27:14;6.85;;;3.58;;
27666;SDS011;15074;50.940;5.282;2023-02-18T03:29:48;6.88;;;4.75;;
27666;SDS011;15074;50.940;5.282;2023-02-18T03:32:19;6.60;;;3.88;;
27666;SDS011;15074;50.940;5.282;2023-02-18T03:34:48;5.72;;;3.72;;
27666;SDS011;15074;50.940;5.282;2023-02-18T03:37:17;6.85;;;5.75;;
27666;SDS011;15074;50.940;5.282;2023-02-18T03:39:45;6.38;;;5.10;;
27666;SDS011;15074;50.940;5.282;2023-02-18T03:42:15;5.13;;;3.47;;
27666;SDS011;15074;50.940;5.282;2023-02-18T03:44:42;7.00;;;4.82;;
27666;SDS011;15074;50.940;5.282;2023-02-18T03:47:08;6.82;;;4.93;;
27666;SDS011;15074;50.940;5.282;2023-02-18T03:49:34;5.60;;;3.40;;
27666;SDS011;15074;50.940;5.282;2023-02-18T03:51:59;4.53;;;3.25;;
27666;SDS011;15074;50.940;5.282;2023-02-18T03:54:25;5.47;;;3.33;;
27666;SDS011;15074;50.940;5.282;2023-02-18T03:56:51;6.03;;;3.63;;
27666;SDS011;15074;50.940;5.282;2023-02-18T03:59:16;4.40;;;3.25;;
27666;SDS011;15074;50.940;5.282;2023-02-18T04:01:42;3.50;;;2.53;;
27666;SDS011;15074;50.940;5.282;2023-02-18T04:04:08;4.82;;;2.90;;
27666;SDS011;15074;50.940;5.282;2023-02-18T04:06:33;3.10;;;2.00;;
27666;SDS011;15074;50.940;5.282;2023-02-18T04:08:59;3.17;;;2.03;;
27666;SDS011;15074;50.940;5.282;2023-02-18T04:11:25;2.97;;;2.00;;
27666;SDS011;15074;50.940;5.282;2023-02-18T04:13:50;3.70;;;2.65;;
27666;SDS011;15074;50.940;5.282;2023-02-18T04:16:17;3.85;;;2.47;;
27666;SDS011;15074;50.940;5.282;2023-02-18T04:18:43;4.38;;;2.50;;
27666;SDS011;15074;50.940;5.282;2023-02-18T04:21:08;3.42;;;2.42;;
27666;SDS011;15074;50.940;5.282;2023-02-18T04:23:34;3.60;;;2.10;;
27666;SDS011;15074;50.940;5.282;2023-02-18T04:26:00;3.72;;;2.47;;
27666;SDS011;15074;50.940;5.282;2023-02-18T04:28:25;4.10;;;2.60;;
27666;SDS011;15074;50.940;5.282;2023-02-18T04:30:51;6.00;;;2.90;;
27666;SDS011;15074;50.940;5.282;2023-02-18T04:33:17;4.85;;;3.40;;
27666;SDS011;15074;50.940;5.282;2023-02-18T04:35:42;4.80;;;3.28;;
27666;SDS011;15074;50.940;5.282;2023-02-18T04:38:08;4.88;;;3.58;;
27666;SDS011;15074;50.940;5.282;2023-02-18T04:40:35;6.35;;;3.67;;
27666;SDS011;15074;50.940;5.282;2023-02-18T04:43:01;4.95;;;3.00;;
27666;SDS011;15074;50.940;5.282;2023-02-18T04:45:27;5.40;;;3.53;;
27666;SDS011;15074;50.940;5.282;2023-02-18T04:47:53;5.40;;;4.00;;
27666;SDS011;15074;50.940;5.282;2023-02-18T04:50:19;3.83;;;2.72;;
27666;SDS011;15074;50.940;5.282;2023-02-18T04:52:46;4.43;;;2.88;;
27666;SDS011;15074;50.940;5.282;2023-02-18T04:55:11;4.90;;;3.42;;
27666;SDS011;15074;50.940;5.282;2023-02-18T04:57:37;5.47;;;3.90;;
27666;SDS011;15074;50.940;5.282;2023-02-18T05:00:03;3.38;;;2.55;;
27666;SDS011;15074;50.940;5.282;2023-02-18T05:02:32;4.10;;;3.03;;
27666;SDS011;15074;50.940;5.282;2023-02-18T05:04:58;4.43;;;3.20;;
27666;SDS011;15074;50.940;5.282;2023-02-18T05:07:24;5.30;;;3.03;;
27666;SDS011;15074;50.940;5.282;2023-02-18T05:09:49;4.55;;;4.07;;
27666;SDS011;15074;50.940;5.282;2023-02-18T05:12:15;3.28;;;2.65;;
27666;SDS011;15074;50.940;5.282;2023-02-18T05:14:40;4.82;;;3.60;;
27666;SDS011;15074;50.940;5.282;2023-02-18T05:17:06;3.38;;;2.75;;
27666;SDS011;15074;50.940;5.282;2023-02-18T05:19:32;3.92;;;3.33;;
27666;SDS011;15074;50.940;5.282;2023-02-18T05:21:58;3.95;;;3.05;;
27666;SDS011;15074;50.940;5.282;2023-02-18T05:24:23;4.28;;;3.60;;
27666;SDS011;15074;50.940;5.282;2023-02-18T05:26:49;2.90;;;2.15;;
27666;SDS011;15074;50.940;5.282;2023-02-18T05:29:15;2.40;;;1.52;;
27666;SDS011;15074;50.940;5.282;2023-02-18T05:31:40;3.90;;;3.00;;
27666;SDS011;15074;50.940;5.282;2023-02-18T05:34:06;3.20;;;2.47;;
27666;SDS011;15074;50.940;5.282;2023-02-18T05:36:32;2.60;;;1.77;;
27666;SDS011;15074;50.940;5.282;2023-02-18T05:38:57;3.58;;;1.60;;
27666;SDS011;15074;50.940;5.282;2023-02-18T05:41:23;3.00;;;2.47;;
27666;SDS011;15074;50.940;5.282;2023-02-18T05:43:49;2.25;;;1.58;;
27666;SDS011;15074;50.940;5.282;2023-02-18T05:46:33;1.88;;;1.30;;
27666;SDS011;15074;50.940;5.282;2023-02-18T05:48:59;3.40;;;2.40;;
27666;SDS011;15074;50.940;5.282;2023-02-18T05:51:24;3.20;;;2.78;;
27666;SDS011;15074;50.940;5.282;2023-02-18T05:53:50;2.50;;;2.00;;
27666;SDS011;15074;50.940;5.282;2023-02-18T05:56:16;2.53;;;1.60;;
27666;SDS011;15074;50.940;5.282;2023-02-18T05:58:41;3.00;;;1.90;;
27666;SDS011;15074;50.940;5.282;2023-02-18T06:01:07;2.60;;;1.60;;
27666;SDS011;15074;50.940;5.282;2023-02-18T06:03:32;2.13;;;1.50;;
27666;SDS011;15074;50.940;5.282;2023-02-18T06:05:58;2.35;;;1.70;;
27666;SDS011;15074;50.940;5.282;2023-02-18T06:08:24;2.15;;;1.55;;
27666;SDS011;15074;50.940;5.282;2023-02-18T06:10:49;2.35;;;1.85;;
27666;SDS011;15074;50.940;5.282;2023-02-18T06:13:15;2.67;;;1.67;;
27666;SDS011;15074;50.940;5.282;2023-02-18T06:15:41;2.28;;;1.60;;
27666;SDS011;15074;50.940;5.282;2023-02-18T06:18:07;2.13;;;1.67;;
27666;SDS011;15074;50.940;5.282;2023-02-18T06:20:32;2.92;;;2.30;;
27666;SDS011;15074;50.940;5.282;2023-02-18T06:22:58;3.10;;;1.65;;
27666;SDS011;15074;50.940;5.282;2023-02-18T06:25:24;2.50;;;1.70;;
27666;SDS011;15074;50.940;5.282;2023-02-18T06:27:49;2.80;;;1.55;;
27666;SDS011;15074;50.940;5.282;2023-02-18T06:35:38;2.00;;;1.30;;
27666;SDS011;15074;50.940;5.282;2023-02-18T06:41:43;2.70;;;1.33;;
27666;SDS011;15074;50.940;5.282;2023-02-18T06:46:53;2.83;;;1.20;;
27666;SDS011;15074;50.940;5.282;2023-02-18T06:49:19;2.53;;;1.30;;
27666;SDS011;15074;50.940;5.282;2023-02-18T06:51:45;2.00;;;1.25;;
27666;SDS011;15074;50.940;5.282;2023-02-18T06:54:10;3.35;;;1.23;;
27666;SDS011;15074;50.940;5.282;2023-02-18T07:00:03;3.33;;;1.55;;
27666;SDS011;15074;50.940;5.282;2023-02-18T07:02:29;4.07;;;1.67;;
27666;SDS011;15074;50.940;5.282;2023-02-18T07:04:55;3.80;;;2.00;;
27666;SDS011;15074;50.940;5.282;2023-02-18T07:23:13;12.75;;;2.08;;
27666;SDS011;15074;50.940;5.282;2023-02-18T07:25:39;4.50;;;1.83;;
27666;SDS011;15074;50.940;5.282;2023-02-18T07:28:05;11.73;;;2.15;;
27666;SDS011;15074;50.940;5.282;2023-02-18T07:30:34;8.93;;;2.83;;
27666;SDS011;15074;50.940;5.282;2023-02-18T07:35:51;3.97;;;1.95;;
27666;SDS011;15074;50.940;5.282;2023-02-18T07:38:17;7.53;;;2.60;;
27666;SDS011;15074;50.940;5.282;2023-02-18T07:40:43;8.43;;;2.42;;
27666;SDS011;15074;50.940;5.282;2023-02-18T07:43:09;4.32;;;1.83;;
27666;SDS011;15074;50.940;5.282;2023-02-18T07:45:55;6.25;;;3.28;;
27666;SDS011;15074;50.940;5.282;2023-02-18T07:48:20;7.25;;;2.28;;
27666;SDS011;15074;50.940;5.282;2023-02-18T07:50:46;6.80;;;1.75;;
27666;SDS011;15074;50.940;5.282;2023-02-18T07:53:13;9.60;;;2.13;;
27666;SDS011;15074;50.940;5.282;2023-02-18T07:55:53;9.13;;;1.98;;
27666;SDS011;15074;50.940;5.282;2023-02-18T08:01:04;8.02;;;1.88;;
27666;SDS011;15074;50.940;5.282;2023-02-18T08:03:31;6.50;;;1.92;;
27666;SDS011;15074;50.940;5.282;2023-02-18T08:05:59;8.27;;;2.17;;
27666;SDS011;15074;50.940;5.282;2023-02-18T08:13:49;9.38;;;2.22;;
27666;SDS011;15074;50.940;5.282;2023-02-18T08:16:15;11.23;;;3.05;;
27666;SDS011;15074;50.940;5.282;2023-02-18T08:18:42;7.13;;;2.30;;
27666;SDS011;15074;50.940;5.282;2023-02-18T08:21:08;8.20;;;3.75;;
27666;SDS011;15074;50.940;5.282;2023-02-18T08:23:34;5.53;;;1.90;;
27666;SDS011;15074;50.940;5.282;2023-02-18T08:26:00;17.73;;;2.97;;
27666;SDS011;15074;50.940;5.282;2023-02-18T08:28:25;6.80;;;2.42;;
27666;SDS011;15074;50.940;5.282;2023-02-18T08:30:52;7.90;;;2.35;;
27666;SDS011;15074;50.940;5.282;2023-02-18T08:33:19;9.37;;;3.03;;
27666;SDS011;15074;50.940;5.282;2023-02-18T08:35:46;11.38;;;2.67;;
27666;SDS011;15074;50.940;5.282;2023-02-18T08:38:12;9.88;;;2.88;;
27666;SDS011;15074;50.940;5.282;2023-02-18T08:40:38;8.23;;;3.25;;
27666;SDS011;15074;50.940;5.282;2023-02-18T08:43:05;9.15;;;2.78;;
27666;SDS011;15074;50.940;5.282;2023-02-18T08:45:31;5.82;;;2.10;;
27666;SDS011;15074;50.940;5.282;2023-02-18T08:47:57;7.28;;;2.10;;
27666;SDS011;15074;50.940;5.282;2023-02-18T08:50:23;5.50;;;1.80;;
27666;SDS011;15074;50.940;5.282;2023-02-18T08:52:53;6.05;;;2.13;;
27666;SDS011;15074;50.940;5.282;2023-02-18T08:55:20;4.85;;;2.35;;
27666;SDS011;15074;50.940;5.282;2023-02-18T08:57:46;9.02;;;2.13;;
27666;SDS011;15074;50.940;5.282;2023-02-18T09:00:16;6.95;;;1.90;;
27666;SDS011;15074;50.940;5.282;2023-02-18T09:02:42;7.55;;;3.03;;
27666;SDS011;15074;50.940;5.282;2023-02-18T09:05:08;7.82;;;2.60;;
27666;SDS011;15074;50.940;5.282;2023-02-18T09:07:35;8.38;;;2.13;;
27666;SDS011;15074;50.940;5.282;2023-02-18T09:10:01;7.70;;;2.13;;
27666;SDS011;15074;50.940;5.282;2023-02-18T09:12:28;10.35;;;4.07;;
27666;SDS011;15074;50.940;5.282;2023-02-18T09:14:54;8.60;;;2.25;;
27666;SDS011;15074;50.940;5.282;2023-02-18T09:17:19;11.13;;;2.90;;
27666;SDS011;15074;50.940;5.282;2023-02-18T09:19:45;10.35;;;2.67;;
27666;SDS011;15074;50.940;5.282;2023-02-18T09:22:11;8.27;;;1.75;;
27666;SDS011;15074;50.940;5.282;2023-02-18T09:24:37;19.65;;;3.90;;
27666;SDS011;15074;50.940;5.282;2023-02-18T09:27:04;10.90;;;2.10;;
27666;SDS011;15074;50.940;5.282;2023-02-18T09:29:30;4.05;;;1.45;;
27666;SDS011;15074;50.940;5.282;2023-02-18T09:31:59;9.00;;;2.83;;
27666;SDS011;15074;50.940;5.282;2023-02-18T09:34:25;7.20;;;2.45;;
27666;SDS011;15074;50.940;5.282;2023-02-18T09:36:51;8.57;;;2.00;;
27666;SDS011;15074;50.940;5.282;2023-02-18T09:39:17;6.85;;;2.20;;
27666;SDS011;15074;50.940;5.282;2023-02-18T09:44:22;6.13;;;1.98;;
27666;SDS011;15074;50.940;5.282;2023-02-18T09:46:52;7.45;;;1.95;;
27666;SDS011;15074;50.940;5.282;2023-02-18T09:49:25;4.28;;;1.40;;
27666;SDS011;15074;50.940;5.282;2023-02-18T09:51:53;6.45;;;1.80;;
27666;SDS011;15074;50.940;5.282;2023-02-18T09:54:20;8.20;;;2.00;;
27666;SDS011;15074;50.940;5.282;2023-02-18T09:56:46;6.90;;;1.80;;
27666;SDS011;15074;50.940;5.282;2023-02-18T09:59:15;4.68;;;1.40;;
27666;SDS011;15074;50.940;5.282;2023-02-18T10:01:43;9.80;;;1.92;;
27666;SDS011;15074;50.940;5.282;2023-02-18T10:06:39;6.60;;;2.17;;
27666;SDS011;15074;50.940;5.282;2023-02-18T10:09:40;5.57;;;2.50;;
27666;SDS011;15074;50.940;5.282;2023-02-18T10:14:42;4.88;;;1.80;;
27666;SDS011;15074;50.940;5.282;2023-02-18T10:17:12;4.68;;;1.80;;
27666;SDS011;15074;50.940;5.282;2023-02-18T10:19:41;4.35;;;1.60;;
27666;SDS011;15074;50.940;5.282;2023-02-18T10:22:10;3.15;;;1.30;;
27666;SDS011;15074;50.940;5.282;2023-02-18T10:24:57;3.53;;;1.23;;
27666;SDS011;15074;50.940;5.282;2023-02-18T10:27:27;13.32;;;1.77;;
27666;SDS011;15074;50.940;5.282;2023-02-18T10:29:59;3.33;;;1.73;;
27666;SDS011;15074;50.940;5.282;2023-02-18T10:32:34;7.20;;;2.22;;
27666;SDS011;15074;50.940;5.282;2023-02-18T10:35:06;4.65;;;1.50;;
27666;SDS011;15074;50.940;5.282;2023-02-18T10:37:46;2.92;;;1.55;;
27666;SDS011;15074;50.940;5.282;2023-02-18T10:46:19;5.80;;;1.70;;
27666;SDS011;15074;50.940;5.282;2023-02-18T10:49:03;4.38;;;1.73;;
27666;SDS011;15074;50.940;5.282;2023-02-18T10:51:41;3.03;;;2.45;;
27666;SDS011;15074;50.940;5.282;2023-02-18T10:54:13;5.50;;;2.30;;
27666;SDS011;15074;50.940;5.282;2023-02-18T10:56:40;4.10;;;1.70;;
27666;SDS011;15074;50.940;5.282;2023-02-18T10:59:26;6.63;;;2.20;;
27666;SDS011;15074;50.940;5.282;2023-02-18T11:01:58;5.72;;;2.17;;
27666;SDS011;15074;50.940;5.282;2023-02-18T11:04:40;5.97;;;1.63;;
27666;SDS011;15074;50.940;5.282;2023-02-18T11:07:12;3.50;;;1.60;;
27666;SDS011;15074;50.940;5.282;2023-02-18T11:09:51;6.63;;;1.92;;
27666;SDS011;15074;50.940;5.282;2023-02-18T11:12:29;5.18;;;2.00;;
27666;SDS011;15074;50.940;5.282;2023-02-18T11:15:16;4.95;;;2.40;;
27666;SDS011;15074;50.940;5.282;2023-02-18T11:17:42;7.15;;;1.70;;
27666;SDS011;15074;50.940;5.282;2023-02-18T11:22:44;4.82;;;2.08;;
27666;SDS011;15074;50.940;5.282;2023-02-18T11:25:19;6.43;;;2.03;;
27666;SDS011;15074;50.940;5.282;2023-02-18T11:27:51;6.40;;;1.83;;
27666;SDS011;15074;50.940;5.282;2023-02-18T11:35:32;5.55;;;2.30;;
27666;SDS011;15074;50.940;5.282;2023-02-18T11:37:59;5.03;;;2.10;;
27666;SDS011;15074;50.940;5.282;2023-02-18T11:40:34;6.43;;;2.13;;
27666;SDS011;15074;50.940;5.282;2023-02-18T11:43:18;3.97;;;2.28;;
27666;SDS011;15074;50.940;5.282;2023-02-18T11:45:44;7.95;;;2.13;;
27666;SDS011;15074;50.940;5.282;2023-02-18T11:48:18;4.13;;;2.17;;
27666;SDS011;15074;50.940;5.282;2023-02-18T11:50:51;7.45;;;2.40;;
27666;SDS011;15074;50.940;5.282;2023-02-18T11:53:31;6.40;;;2.20;;
27666;SDS011;15074;50.940;5.282;2023-02-18T11:56:00;4.80;;;2.53;;
27666;SDS011;15074;50.940;5.282;2023-02-18T11:58:42;9.68;;;2.67;;
27666;SDS011;15074;50.940;5.282;2023-02-18T12:06:49;7.63;;;3.38;;
27666;SDS011;15074;50.940;5.282;2023-02-18T12:09:30;6.90;;;3.08;;
27666;SDS011;15074;50.940;5.282;2023-02-18T12:14:53;9.85;;;6.57;;
27666;SDS011;15074;50.940;5.282;2023-02-18T12:17:24;8.85;;;5.18;;
27666;SDS011;15074;50.940;5.282;2023-02-18T12:22:41;9.95;;;6.05;;
27666;SDS011;15074;50.940;5.282;2023-02-18T12:37:05;8.73;;;4.13;;
27666;SDS011;15074;50.940;5.282;2023-02-18T12:50:44;6.80;;;3.47;;
27666;SDS011;15074;50.940;5.282;2023-02-18T12:56:24;6.28;;;3.67;;
27666;SDS011;15074;50.940;5.282;2023-02-18T12:59:15;9.32;;;4.32;;
27666;SDS011;15074;50.940;5.282;2023-02-18T13:13:07;8.52;;;4.50;;
27666;SDS011;15074;50.940;5.282;2023-02-18T13:18:19;10.02;;;4.55;;
27666;SDS011;15074;50.940;5.282;2023-02-18T13:20:55;9.70;;;4.90;;
27666;SDS011;15074;50.940;5.282;2023-02-18T13:23:28;8.90;;;4.40;;
27666;SDS011;15074;50.940;5.282;2023-02-18T13:25:58;8.48;;;4.43;;
27666;SDS011;15074;50.940;5.282;2023-02-18T13:33:51;10.75;;;6.03;;
27666;SDS011;15074;50.940;5.282;2023-02-18T13:39:19;11.43;;;4.82;;
27666;SDS011;15074;50.940;5.282;2023-02-18T13:41:48;6.65;;;4.50;;
27666;SDS011;15074;50.940;5.282;2023-02-18T13:46:51;5.60;;;4.20;;
27666;SDS011;15074;50.940;5.282;2023-02-18T13:49:20;10.20;;;4.23;;
27666;SDS011;15074;50.940;5.282;2023-02-18T13:51:52;9.60;;;4.93;;
27666;SDS011;15074;50.940;5.282;2023-02-18T13:56:59;6.35;;;4.30;;
27666;SDS011;15074;50.940;5.282;2023-02-18T14:01:55;9.25;;;4.70;;
27666;SDS011;15074;50.940;5.282;2023-02-18T14:04:52;6.97;;;4.38;;
27666;SDS011;15074;50.940;5.282;2023-02-18T14:07:44;9.50;;;4.40;;
27666;SDS011;15074;50.940;5.282;2023-02-18T14:17:48;8.63;;;5.13;;
27666;SDS011;15074;50.940;5.282;2023-02-18T14:22:50;8.73;;;4.30;;
27666;SDS011;15074;50.940;5.282;2023-02-18T14:27:44;7.47;;;4.50;;
27666;SDS011;15074;50.940;5.282;2023-02-18T14:30:18;13.45;;;5.22;;
27666;SDS011;15074;50.940;5.282;2023-02-18T14:32:49;6.93;;;5.05;;
27666;SDS011;15074;50.940;5.282;2023-02-18T14:38:45;11.38;;;7.07;;
27666;SDS011;15074;50.940;5.282;2023-02-18T14:41:29;11.07;;;4.45;;
27666;SDS011;15074;50.940;5.282;2023-02-18T14:44:23;8.25;;;4.68;;
27666;SDS011;15074;50.940;5.282;2023-02-18T14:47:55;8.18;;;4.97;;
27666;SDS011;15074;50.940;5.282;2023-02-18T14:50:12;5.30;;;4.32;;
27666;SDS011;15074;50.940;5.282;2023-02-18T14:55:21;8.95;;;4.72;;
27666;SDS011;15074;50.940;5.282;2023-02-18T14:57:53;10.30;;;6.03;;
27666;SDS011;15074;50.940;5.282;2023-02-18T15:00:24;6.20;;;3.50;;
27666;SDS011;15074;50.940;5.282;2023-02-18T15:02:56;6.18;;;4.70;;
27666;SDS011;15074;50.940;5.282;2023-02-18T15:05:27;8.50;;;6.13;;
27666;SDS011;15074;50.940;5.282;2023-02-18T15:08:01;16.92;;;9.05;;
27666;SDS011;15074;50.940;5.282;2023-02-18T15:13:04;8.15;;;6.80;;
27666;SDS011;15074;50.940;5.282;2023-02-18T15:15:33;7.50;;;6.63;;
27666;SDS011;15074;50.940;5.282;2023-02-18T15:18:03;5.57;;;4.55;;
27666;SDS011;15074;50.940;5.282;2023-02-18T15:20:31;6.90;;;4.80;;
27666;SDS011;15074;50.940;5.282;2023-02-18T15:22:58;7.93;;;5.68;;
27666;SDS011;15074;50.940;5.282;2023-02-18T15:25:24;7.22;;;4.50;;
27666;SDS011;15074;50.940;5.282;2023-02-18T15:27:50;7.75;;;5.57;;
27666;SDS011;15074;50.940;5.282;2023-02-18T15:30:23;8.50;;;7.63;;
27666;SDS011;15074;50.940;5.282;2023-02-18T15:32:53;12.40;;;8.27;;
27666;SDS011;15074;50.940;5.282;2023-02-18T15:35:21;7.13;;;6.35;;
27666;SDS011;15074;50.940;5.282;2023-02-18T15:37:51;7.07;;;6.25;;
27666;SDS011;15074;50.940;5.282;2023-02-18T15:40:18;6.78;;;6.15;;
27666;SDS011;15074;50.940;5.282;2023-02-18T15:42:47;8.02;;;6.63;;
27666;SDS011;15074;50.940;5.282;2023-02-18T15:45:22;7.10;;;4.93;;
27666;SDS011;15074;50.940;5.282;2023-02-18T15:47:53;7.88;;;5.95;;
27666;SDS011;15074;50.940;5.282;2023-02-18T15:50:28;10.63;;;8.57;;
27666;SDS011;15074;50.940;5.282;2023-02-18T15:52:58;8.30;;;5.47;;
27666;SDS011;15074;50.940;5.282;2023-02-18T15:55:30;5.78;;;4.82;;
27666;SDS011;15074;50.940;5.282;2023-02-18T15:57:58;7.78;;;6.32;;
27666;SDS011;15074;50.940;5.282;2023-02-18T16:03:22;6.05;;;4.30;;
27666;SDS011;15074;50.940;5.282;2023-02-18T16:05:49;6.47;;;4.47;;
27666;SDS011;15074;50.940;5.282;2023-02-18T16:08:20;9.55;;;6.43;;
27666;SDS011;15074;50.940;5.282;2023-02-18T16:10:49;7.93;;;4.28;;
27666;SDS011;15074;50.940;5.282;2023-02-18T16:13:20;6.57;;;4.55;;
27666;SDS011;15074;50.940;5.282;2023-02-18T16:15:47;6.93;;;5.38;;
27666;SDS011;15074;50.940;5.282;2023-02-18T16:18:48;9.43;;;6.80;;
27666;SDS011;15074;50.940;5.282;2023-02-18T16:23:45;8.88;;;4.45;;
27666;SDS011;15074;50.940;5.282;2023-02-18T16:28:53;19.42;;;5.40;;
27666;SDS011;15074;50.940;5.282;2023-02-18T16:31:19;6.13;;;3.60;;
27666;SDS011;15074;50.940;5.282;2023-02-18T16:33:46;5.35;;;4.85;;
27666;SDS011;15074;50.940;5.282;2023-02-18T16:36:13;8.68;;;6.15;;
27666;SDS011;15074;50.940;5.282;2023-02-18T16:38:43;6.13;;;4.47;;
27666;SDS011;15074;50.940;5.282;2023-02-18T16:41:12;4.55;;;4.15;;
27666;SDS011;15074;50.940;5.282;2023-02-18T16:43:38;7.85;;;6.18;;
27666;SDS011;15074;50.940;5.282;2023-02-18T16:46:23;11.82;;;5.80;;
27666;SDS011;15074;50.940;5.282;2023-02-18T16:48:49;5.78;;;4.03;;
27666;SDS011;15074;50.940;5.282;2023-02-18T16:51:27;8.82;;;5.35;;
27666;SDS011;15074;50.940;5.282;2023-02-18T16:53:56;10.73;;;6.65;;
27666;SDS011;15074;50.940;5.282;2023-02-18T16:56:23;6.60;;;4.72;;
27666;SDS011;15074;50.940;5.282;2023-02-18T16:58:50;8.27;;;4.78;;
27666;SDS011;15074;50.940;5.282;2023-02-18T17:01:19;8.95;;;5.90;;
27666;SDS011;15074;50.940;5.282;2023-02-18T17:03:49;6.93;;;6.22;;
27666;SDS011;15074;50.940;5.282;2023-02-18T17:06:15;6.03;;;5.03;;
27666;SDS011;15074;50.940;5.282;2023-02-18T17:08:41;6.75;;;4.68;;
27666;SDS011;15074;50.940;5.282;2023-02-18T17:11:08;8.52;;;6.28;;
27666;SDS011;15074;50.940;5.282;2023-02-18T17:13:42;10.77;;;5.57;;
27666;SDS011;15074;50.940;5.282;2023-02-18T17:16:08;7.55;;;5.43;;
27666;SDS011;15074;50.940;5.282;2023-02-18T17:18:34;8.63;;;6.47;;
27666;SDS011;15074;50.940;5.282;2023-02-18T17:21:00;12.18;;;7.03;;
27666;SDS011;15074;50.940;5.282;2023-02-18T17:23:27;5.63;;;5.03;;
27666;SDS011;15074;50.940;5.282;2023-02-18T17:25:53;6.65;;;4.70;;
27666;SDS011;15074;50.940;5.282;2023-02-18T17:28:18;7.85;;;6.60;;
27666;SDS011;15074;50.940;5.282;2023-02-18T17:30:45;6.30;;;5.30;;
27666;SDS011;15074;50.940;5.282;2023-02-18T17:33:14;7.57;;;5.15;;
27666;SDS011;15074;50.940;5.282;2023-02-18T17:35:42;10.90;;;4.43;;
27666;SDS011;15074;50.940;5.282;2023-02-18T17:38:15;8.85;;;5.07;;
27666;SDS011;15074;50.940;5.282;2023-02-18T17:40:43;6.90;;;5.35;;
27666;SDS011;15074;50.940;5.282;2023-02-18T17:43:12;9.15;;;6.38;;
27666;SDS011;15074;50.940;5.282;2023-02-18T17:45:50;7.38;;;6.47;;
27666;SDS011;15074;50.940;5.282;2023-02-18T17:48:18;7.40;;;6.53;;
27666;SDS011;15074;50.940;5.282;2023-02-18T17:50:44;9.40;;;7.05;;
27666;SDS011;15074;50.940;5.282;2023-02-18T17:53:10;8.52;;;7.25;;
27666;SDS011;15074;50.940;5.282;2023-02-18T17:55:37;8.45;;;7.07;;
27666;SDS011;15074;50.940;5.282;2023-02-18T17:58:03;11.48;;;7.65;;
27666;SDS011;15074;50.940;5.282;2023-02-18T18:00:33;8.73;;;7.78;;
27666;SDS011;15074;50.940;5.282;2023-02-18T18:03:01;9.15;;;8.27;;
27666;SDS011;15074;50.940;5.282;2023-02-18T18:05:29;10.75;;;8.05;;
27666;SDS011;15074;50.940;5.282;2023-02-18T18:07:57;8.68;;;7.80;;
27666;SDS011;15074;50.940;5.282;2023-02-18T18:10:24;9.38;;;8.18;;